< < Back
Terminal Aerodrome Forecast


Current Version              Previous Versions:   1  2  3  4  5  6  7  8  9  

Terminal Aerodrome Forecast

961
FTUS44 KBMX 201400 AAA
TAFTCL
TAF AMD
KTCL 201420Z 2014/2112 36005KT P6SM BKN040
     FM201700 36005KT P6SM BKN060
     FM211000 02002KT 5SM BR SCT008 BKN040=

Latest METAR

566
SAUS70 KWBC 201600 RRK
MTRTCL
METAR KTCL 201553Z 36004KT 7SM OVC040 07/03 A3026 RMK AO2 SLP246
T00720033


USA.gov is the U.S. government's official web portal to all federal, state and local government web resources and services.